sensor_id;sensor_type;location;lat;lon;timestamp;P1;durP1;ratioP1;P2;durP2;ratioP2
66483;SDS011;53299;52.160;7.556;2022-11-15T00:00:47;8.98;;;5.43;;
66483;SDS011;53299;52.160;7.556;2022-11-15T00:03:13;8.02;;;4.55;;
66483;SDS011;53299;52.160;7.556;2022-11-15T00:05:42;8.00;;;4.80;;
66483;SDS011;53299;52.160;7.556;2022-11-15T00:08:08;8.40;;;5.10;;
66483;SDS011;53299;52.160;7.556;2022-11-15T00:10:33;8.85;;;4.93;;
66483;SDS011;53299;52.160;7.556;2022-11-15T00:12:59;8.47;;;5.07;;
66483;SDS011;53299;52.160;7.556;2022-11-15T00:15:24;8.93;;;4.60;;
66483;SDS011;53299;52.160;7.556;2022-11-15T00:17:50;8.43;;;4.83;;
66483;SDS011;53299;52.160;7.556;2022-11-15T00:20:16;8.57;;;4.97;;
66483;SDS011;53299;52.160;7.556;2022-11-15T00:22:42;8.00;;;4.50;;
66483;SDS011;53299;52.160;7.556;2022-11-15T00:25:07;8.47;;;4.80;;
66483;SDS011;53299;52.160;7.556;2022-11-15T00:27:32;8.73;;;4.78;;
66483;SDS011;53299;52.160;7.556;2022-11-15T00:29:58;8.00;;;4.77;;
66483;SDS011;53299;52.160;7.556;2022-11-15T00:32:23;7.83;;;4.30;;
66483;SDS011;53299;52.160;7.556;2022-11-15T00:34:48;8.07;;;4.70;;
66483;SDS011;53299;52.160;7.556;2022-11-15T00:37:13;8.77;;;5.20;;
66483;SDS011;53299;52.160;7.556;2022-11-15T00:39:39;8.47;;;4.80;;
66483;SDS011;53299;52.160;7.556;2022-11-15T00:42:04;9.43;;;5.10;;
66483;SDS011;53299;52.160;7.556;2022-11-15T00:44:29;8.53;;;4.90;;
66483;SDS011;53299;52.160;7.556;2022-11-15T00:46:54;8.03;;;4.20;;
66483;SDS011;53299;52.160;7.556;2022-11-15T00:49:20;7.87;;;4.40;;
66483;SDS011;53299;52.160;7.556;2022-11-15T00:51:45;8.90;;;5.00;;
66483;SDS011;53299;52.160;7.556;2022-11-15T00:54:10;8.40;;;4.50;;
66483;SDS011;53299;52.160;7.556;2022-11-15T00:56:35;7.83;;;4.37;;
66483;SDS011;53299;52.160;7.556;2022-11-15T00:59:01;8.90;;;4.80;;
66483;SDS011;53299;52.160;7.556;2022-11-15T01:01:26;8.03;;;4.47;;
66483;SDS011;53299;52.160;7.556;2022-11-15T01:03:51;7.93;;;4.57;;
66483;SDS011;53299;52.160;7.556;2022-11-15T01:06:16;8.37;;;4.60;;
66483;SDS011;53299;52.160;7.556;2022-11-15T01:08:42;8.33;;;4.83;;
66483;SDS011;53299;52.160;7.556;2022-11-15T01:11:08;7.97;;;4.47;;
66483;SDS011;53299;52.160;7.556;2022-11-15T01:13:35;7.85;;;4.45;;
66483;SDS011;53299;52.160;7.556;2022-11-15T01:16:05;7.40;;;4.37;;
66483;SDS011;53299;52.160;7.556;2022-11-15T01:18:32;7.78;;;4.43;;
66483;SDS011;53299;52.160;7.556;2022-11-15T01:20:57;9.03;;;4.40;;
66483;SDS011;53299;52.160;7.556;2022-11-15T01:23:22;8.00;;;4.60;;
66483;SDS011;53299;52.160;7.556;2022-11-15T01:25:48;9.33;;;4.47;;
66483;SDS011;53299;52.160;7.556;2022-11-15T01:28:13;8.53;;;4.70;;
66483;SDS011;53299;52.160;7.556;2022-11-15T01:30:38;8.53;;;4.50;;
66483;SDS011;53299;52.160;7.556;2022-11-15T01:33:03;8.40;;;4.33;;
66483;SDS011;53299;52.160;7.556;2022-11-15T01:35:29;7.57;;;4.10;;
66483;SDS011;53299;52.160;7.556;2022-11-15T01:37:54;8.37;;;4.30;;
66483;SDS011;53299;52.160;7.556;2022-11-15T01:40:19;8.07;;;4.33;;
66483;SDS011;53299;52.160;7.556;2022-11-15T01:42:44;8.37;;;4.67;;
66483;SDS011;53299;52.160;7.556;2022-11-15T01:45:12;8.37;;;4.50;;
66483;SDS011;53299;52.160;7.556;2022-11-15T01:47:40;8.63;;;4.00;;
66483;SDS011;53299;52.160;7.556;2022-11-15T01:50:10;7.68;;;4.20;;
66483;SDS011;53299;52.160;7.556;2022-11-15T01:52:39;7.70;;;4.20;;
66483;SDS011;53299;52.160;7.556;2022-11-15T01:58:01;7.57;;;4.23;;
66483;SDS011;53299;52.160;7.556;2022-11-15T02:00:29;7.78;;;4.35;;
66483;SDS011;53299;52.160;7.556;2022-11-15T02:02:54;7.87;;;4.53;;
66483;SDS011;53299;52.160;7.556;2022-11-15T02:05:20;7.63;;;4.20;;
66483;SDS011;53299;52.160;7.556;2022-11-15T02:07:45;7.50;;;4.03;;
66483;SDS011;53299;52.160;7.556;2022-11-15T02:10:19;7.60;;;4.38;;
66483;SDS011;53299;52.160;7.556;2022-11-15T02:12:47;7.85;;;4.18;;
66483;SDS011;53299;52.160;7.556;2022-11-15T02:15:13;7.57;;;4.20;;
66483;SDS011;53299;52.160;7.556;2022-11-15T02:28:42;7.82;;;4.20;;
66483;SDS011;53299;52.160;7.556;2022-11-15T02:39:04;7.53;;;4.07;;
66483;SDS011;53299;52.160;7.556;2022-11-15T02:41:47;7.32;;;4.18;;
66483;SDS011;53299;52.160;7.556;2022-11-15T02:44:21;7.18;;;4.00;;
66483;SDS011;53299;52.160;7.556;2022-11-15T02:46:54;7.50;;;3.97;;
66483;SDS011;53299;52.160;7.556;2022-11-15T02:49:25;7.40;;;4.05;;
66483;SDS011;53299;52.160;7.556;2022-11-15T02:51:53;7.00;;;3.70;;
66483;SDS011;53299;52.160;7.556;2022-11-15T02:54:21;7.53;;;3.67;;
66483;SDS011;53299;52.160;7.556;2022-11-15T02:56:53;8.05;;;4.00;;
66483;SDS011;53299;52.160;7.556;2022-11-15T02:59:29;7.10;;;3.60;;
66483;SDS011;53299;52.160;7.556;2022-11-15T03:04:55;7.78;;;3.65;;
66483;SDS011;53299;52.160;7.556;2022-11-15T03:07:30;8.60;;;3.70;;
66483;SDS011;53299;52.160;7.556;2022-11-15T03:12:54;7.83;;;3.93;;
66483;SDS011;53299;52.160;7.556;2022-11-15T03:18:05;7.60;;;4.25;;
66483;SDS011;53299;52.160;7.556;2022-11-15T03:20:42;7.57;;;3.90;;
66483;SDS011;53299;52.160;7.556;2022-11-15T03:23:09;7.22;;;3.90;;
66483;SDS011;53299;52.160;7.556;2022-11-15T03:25:36;6.67;;;3.50;;
66483;SDS011;53299;52.160;7.556;2022-11-15T03:28:05;6.93;;;3.40;;
66483;SDS011;53299;52.160;7.556;2022-11-15T03:30:34;6.85;;;3.85;;
66483;SDS011;53299;52.160;7.556;2022-11-15T03:33:02;7.78;;;3.75;;
66483;SDS011;53299;52.160;7.556;2022-11-15T03:35:30;6.95;;;3.70;;
66483;SDS011;53299;52.160;7.556;2022-11-15T03:38:03;7.60;;;3.77;;
66483;SDS011;53299;52.160;7.556;2022-11-15T03:40:42;7.13;;;3.67;;
66483;SDS011;53299;52.160;7.556;2022-11-15T03:43:29;6.78;;;3.50;;
66483;SDS011;53299;52.160;7.556;2022-11-15T03:46:02;7.45;;;3.67;;
66483;SDS011;53299;52.160;7.556;2022-11-15T03:48:37;6.60;;;3.30;;
66483;SDS011;53299;52.160;7.556;2022-11-15T03:51:08;6.97;;;3.43;;
66483;SDS011;53299;52.160;7.556;2022-11-15T03:53:34;6.50;;;3.40;;
66483;SDS011;53299;52.160;7.556;2022-11-15T03:55:59;7.37;;;3.90;;
66483;SDS011;53299;52.160;7.556;2022-11-15T03:58:24;6.83;;;3.57;;
66483;SDS011;53299;52.160;7.556;2022-11-15T04:00:49;6.67;;;3.67;;
66483;SDS011;53299;52.160;7.556;2022-11-15T04:03:15;6.93;;;3.58;;
66483;SDS011;53299;52.160;7.556;2022-11-15T04:05:40;7.60;;;3.60;;
66483;SDS011;53299;52.160;7.556;2022-11-15T04:08:05;6.30;;;3.13;;
66483;SDS011;53299;52.160;7.556;2022-11-15T04:10:31;6.80;;;3.80;;
66483;SDS011;53299;52.160;7.556;2022-11-15T04:12:56;6.90;;;3.80;;
66483;SDS011;53299;52.160;7.556;2022-11-15T04:15:22;7.47;;;3.83;;
66483;SDS011;53299;52.160;7.556;2022-11-15T04:17:49;6.38;;;3.13;;
66483;SDS011;53299;52.160;7.556;2022-11-15T04:20:20;6.07;;;3.20;;
66483;SDS011;53299;52.160;7.556;2022-11-15T04:22:47;7.15;;;3.22;;
66483;SDS011;53299;52.160;7.556;2022-11-15T04:25:12;6.80;;;3.30;;
66483;SDS011;53299;52.160;7.556;2022-11-15T04:27:38;6.57;;;3.37;;
66483;SDS011;53299;52.160;7.556;2022-11-15T04:30:03;6.87;;;3.47;;
66483;SDS011;53299;52.160;7.556;2022-11-15T04:32:29;6.63;;;3.33;;
66483;SDS011;53299;52.160;7.556;2022-11-15T04:34:54;6.90;;;3.60;;
66483;SDS011;53299;52.160;7.556;2022-11-15T04:37:19;6.87;;;3.27;;
66483;SDS011;53299;52.160;7.556;2022-11-15T04:39:44;6.17;;;3.20;;
66483;SDS011;53299;52.160;7.556;2022-11-15T04:42:10;7.20;;;3.60;;
66483;SDS011;53299;52.160;7.556;2022-11-15T04:44:35;6.73;;;3.33;;
66483;SDS011;53299;52.160;7.556;2022-11-15T04:47:00;7.17;;;3.43;;
66483;SDS011;53299;52.160;7.556;2022-11-15T04:49:26;6.60;;;3.33;;
66483;SDS011;53299;52.160;7.556;2022-11-15T04:51:51;7.17;;;3.30;;
66483;SDS011;53299;52.160;7.556;2022-11-15T04:54:17;6.47;;;3.00;;
66483;SDS011;53299;52.160;7.556;2022-11-15T04:56:42;6.77;;;3.40;;
66483;SDS011;53299;52.160;7.556;2022-11-15T04:59:07;7.00;;;3.40;;
66483;SDS011;53299;52.160;7.556;2022-11-15T05:01:33;7.07;;;3.43;;
66483;SDS011;53299;52.160;7.556;2022-11-15T05:03:58;7.67;;;3.47;;
66483;SDS011;53299;52.160;7.556;2022-11-15T05:06:23;6.73;;;3.53;;
66483;SDS011;53299;52.160;7.556;2022-11-15T05:08:48;6.83;;;3.30;;
66483;SDS011;53299;52.160;7.556;2022-11-15T05:11:13;7.03;;;3.40;;
66483;SDS011;53299;52.160;7.556;2022-11-15T05:13:39;7.10;;;3.57;;
66483;SDS011;53299;52.160;7.556;2022-11-15T05:16:04;6.80;;;3.10;;
66483;SDS011;53299;52.160;7.556;2022-11-15T05:18:29;6.70;;;3.40;;
66483;SDS011;53299;52.160;7.556;2022-11-15T05:20:55;7.70;;;3.43;;
66483;SDS011;53299;52.160;7.556;2022-11-15T05:23:20;6.50;;;3.50;;
66483;SDS011;53299;52.160;7.556;2022-11-15T05:25:45;6.90;;;3.37;;
66483;SDS011;53299;52.160;7.556;2022-11-15T05:28:10;6.93;;;3.50;;
66483;SDS011;53299;52.160;7.556;2022-11-15T05:30:36;6.30;;;3.43;;
66483;SDS011;53299;52.160;7.556;2022-11-15T05:33:01;7.00;;;3.30;;
66483;SDS011;53299;52.160;7.556;2022-11-15T05:35:38;7.67;;;3.50;;
66483;SDS011;53299;52.160;7.556;2022-11-15T05:38:06;6.40;;;3.20;;
66483;SDS011;53299;52.160;7.556;2022-11-15T05:40:32;7.07;;;3.60;;
66483;SDS011;53299;52.160;7.556;2022-11-15T05:42:59;7.03;;;3.30;;
66483;SDS011;53299;52.160;7.556;2022-11-15T05:45:26;6.65;;;3.72;;
66483;SDS011;53299;52.160;7.556;2022-11-15T05:47:53;7.03;;;3.80;;
66483;SDS011;53299;52.160;7.556;2022-11-15T05:50:21;7.22;;;3.50;;
66483;SDS011;53299;52.160;7.556;2022-11-15T05:52:46;6.67;;;3.53;;
66483;SDS011;53299;52.160;7.556;2022-11-15T05:55:12;6.97;;;3.45;;
66483;SDS011;53299;52.160;7.556;2022-11-15T05:57:38;7.67;;;3.57;;
66483;SDS011;53299;52.160;7.556;2022-11-15T06:00:03;6.47;;;3.10;;
66483;SDS011;53299;52.160;7.556;2022-11-15T06:02:29;7.57;;;3.80;;
66483;SDS011;53299;52.160;7.556;2022-11-15T06:04:55;7.10;;;3.27;;
66483;SDS011;53299;52.160;7.556;2022-11-15T06:07:20;6.60;;;3.30;;
66483;SDS011;53299;52.160;7.556;2022-11-15T06:09:45;6.43;;;3.35;;
66483;SDS011;53299;52.160;7.556;2022-11-15T06:12:11;7.13;;;3.77;;
66483;SDS011;53299;52.160;7.556;2022-11-15T06:14:36;7.07;;;3.37;;
66483;SDS011;53299;52.160;7.556;2022-11-15T06:17:01;6.90;;;3.60;;
66483;SDS011;53299;52.160;7.556;2022-11-15T06:19:26;7.17;;;3.40;;
66483;SDS011;53299;52.160;7.556;2022-11-15T06:21:52;7.00;;;3.73;;
66483;SDS011;53299;52.160;7.556;2022-11-15T06:24:17;8.00;;;3.80;;
66483;SDS011;53299;52.160;7.556;2022-11-15T06:26:42;7.20;;;3.40;;
66483;SDS011;53299;52.160;7.556;2022-11-15T06:29:07;8.13;;;3.57;;
66483;SDS011;53299;52.160;7.556;2022-11-15T06:31:33;8.73;;;3.53;;
66483;SDS011;53299;52.160;7.556;2022-11-15T06:33:59;7.25;;;3.60;;
66483;SDS011;53299;52.160;7.556;2022-11-15T06:36:24;6.80;;;3.50;;
66483;SDS011;53299;52.160;7.556;2022-11-15T06:38:49;7.20;;;3.30;;
66483;SDS011;53299;52.160;7.556;2022-11-15T06:41:15;7.83;;;3.33;;
66483;SDS011;53299;52.160;7.556;2022-11-15T06:43:40;7.53;;;3.60;;
66483;SDS011;53299;52.160;7.556;2022-11-15T06:46:06;8.33;;;3.57;;
66483;SDS011;53299;52.160;7.556;2022-11-15T06:48:32;6.90;;;3.50;;
66483;SDS011;53299;52.160;7.556;2022-11-15T06:50:59;6.60;;;3.40;;
66483;SDS011;53299;52.160;7.556;2022-11-15T06:53:26;6.95;;;3.40;;
66483;SDS011;53299;52.160;7.556;2022-11-15T06:55:51;7.27;;;3.40;;
66483;SDS011;53299;52.160;7.556;2022-11-15T06:58:17;7.45;;;3.70;;
66483;SDS011;53299;52.160;7.556;2022-11-15T07:00:43;7.47;;;3.37;;
66483;SDS011;53299;52.160;7.556;2022-11-15T07:03:08;6.65;;;3.13;;
66483;SDS011;53299;52.160;7.556;2022-11-15T07:05:34;6.80;;;3.37;;
66483;SDS011;53299;52.160;7.556;2022-11-15T07:08:00;8.77;;;3.42;;
66483;SDS011;53299;52.160;7.556;2022-11-15T07:10:25;8.10;;;3.60;;
66483;SDS011;53299;52.160;7.556;2022-11-15T07:12:51;7.00;;;3.58;;
66483;SDS011;53299;52.160;7.556;2022-11-15T07:15:18;7.47;;;3.57;;
66483;SDS011;53299;52.160;7.556;2022-11-15T07:17:44;7.28;;;3.42;;
66483;SDS011;53299;52.160;7.556;2022-11-15T07:20:09;6.90;;;3.47;;
66483;SDS011;53299;52.160;7.556;2022-11-15T07:22:35;8.65;;;3.30;;
66483;SDS011;53299;52.160;7.556;2022-11-15T07:25:01;8.33;;;3.40;;
66483;SDS011;53299;52.160;7.556;2022-11-15T07:27:26;6.70;;;3.30;;
66483;SDS011;53299;52.160;7.556;2022-11-15T07:29:52;8.20;;;3.67;;
66483;SDS011;53299;52.160;7.556;2022-11-15T07:32:17;7.23;;;3.67;;
66483;SDS011;53299;52.160;7.556;2022-11-15T07:34:42;9.33;;;3.43;;
66483;SDS011;53299;52.160;7.556;2022-11-15T07:37:07;9.13;;;3.60;;
66483;SDS011;53299;52.160;7.556;2022-11-15T07:39:33;7.63;;;3.43;;
66483;SDS011;53299;52.160;7.556;2022-11-15T07:41:58;7.83;;;3.40;;
66483;SDS011;53299;52.160;7.556;2022-11-15T07:44:24;7.57;;;3.30;;
66483;SDS011;53299;52.160;7.556;2022-11-15T07:46:50;7.20;;;3.25;;
66483;SDS011;53299;52.160;7.556;2022-11-15T07:49:15;7.40;;;3.30;;
66483;SDS011;53299;52.160;7.556;2022-11-15T07:51:40;6.50;;;3.30;;
66483;SDS011;53299;52.160;7.556;2022-11-15T07:54:06;7.40;;;3.23;;
66483;SDS011;53299;52.160;7.556;2022-11-15T07:56:31;7.90;;;3.70;;
66483;SDS011;53299;52.160;7.556;2022-11-15T07:58:56;7.03;;;3.70;;
66483;SDS011;53299;52.160;7.556;2022-11-15T08:01:21;7.20;;;3.20;;
66483;SDS011;53299;52.160;7.556;2022-11-15T08:03:47;8.00;;;3.50;;
66483;SDS011;53299;52.160;7.556;2022-11-15T08:06:12;6.63;;;3.30;;
66483;SDS011;53299;52.160;7.556;2022-11-15T08:08:37;8.60;;;3.63;;
66483;SDS011;53299;52.160;7.556;2022-11-15T08:11:02;7.10;;;3.40;;
66483;SDS011;53299;52.160;7.556;2022-11-15T08:13:28;7.10;;;3.20;;
66483;SDS011;53299;52.160;7.556;2022-11-15T08:15:59;8.00;;;3.30;;
66483;SDS011;53299;52.160;7.556;2022-11-15T08:18:26;7.18;;;3.28;;
66483;SDS011;53299;52.160;7.556;2022-11-15T08:20:51;7.63;;;3.50;;
66483;SDS011;53299;52.160;7.556;2022-11-15T08:23:16;10.67;;;3.37;;
66483;SDS011;53299;52.160;7.556;2022-11-15T08:25:41;12.60;;;3.73;;
66483;SDS011;53299;52.160;7.556;2022-11-15T08:28:07;9.60;;;3.60;;
66483;SDS011;53299;52.160;7.556;2022-11-15T08:30:35;13.13;;;3.58;;
66483;SDS011;53299;52.160;7.556;2022-11-15T08:33:02;10.80;;;4.07;;
66483;SDS011;53299;52.160;7.556;2022-11-15T08:35:28;9.63;;;3.77;;
66483;SDS011;53299;52.160;7.556;2022-11-15T08:37:53;9.60;;;3.57;;
66483;SDS011;53299;52.160;7.556;2022-11-15T08:40:19;8.20;;;3.33;;
66483;SDS011;53299;52.160;7.556;2022-11-15T08:42:48;7.87;;;3.57;;
66483;SDS011;53299;52.160;7.556;2022-11-15T08:45:14;7.68;;;3.30;;
66483;SDS011;53299;52.160;7.556;2022-11-15T08:47:39;8.80;;;3.70;;
66483;SDS011;53299;52.160;7.556;2022-11-15T08:50:05;9.43;;;3.30;;
66483;SDS011;53299;52.160;7.556;2022-11-15T08:52:31;9.00;;;3.33;;
66483;SDS011;53299;52.160;7.556;2022-11-15T08:54:56;6.85;;;3.50;;
66483;SDS011;53299;52.160;7.556;2022-11-15T08:57:22;7.73;;;3.60;;
66483;SDS011;53299;52.160;7.556;2022-11-15T08:59:47;9.00;;;3.30;;
66483;SDS011;53299;52.160;7.556;2022-11-15T09:02:13;10.93;;;3.23;;
66483;SDS011;53299;52.160;7.556;2022-11-15T09:04:39;12.25;;;3.30;;
66483;SDS011;53299;52.160;7.556;2022-11-15T09:07:05;12.88;;;3.30;;
66483;SDS011;53299;52.160;7.556;2022-11-15T09:09:31;7.90;;;3.17;;
66483;SDS011;53299;52.160;7.556;2022-11-15T09:11:56;7.93;;;3.17;;
66483;SDS011;53299;52.160;7.556;2022-11-15T09:14:21;9.60;;;3.40;;
66483;SDS011;53299;52.160;7.556;2022-11-15T09:16:46;7.97;;;3.40;;
66483;SDS011;53299;52.160;7.556;2022-11-15T09:19:12;7.13;;;3.23;;
66483;SDS011;53299;52.160;7.556;2022-11-15T09:21:37;8.33;;;3.10;;
66483;SDS011;53299;52.160;7.556;2022-11-15T09:24:02;7.07;;;3.40;;
66483;SDS011;53299;52.160;7.556;2022-11-15T09:26:27;8.77;;;2.93;;
66483;SDS011;53299;52.160;7.556;2022-11-15T09:28:53;6.67;;;3.13;;
66483;SDS011;53299;52.160;7.556;2022-11-15T09:31:18;7.90;;;3.30;;
66483;SDS011;53299;52.160;7.556;2022-11-15T09:33:44;6.53;;;2.93;;
66483;SDS011;53299;52.160;7.556;2022-11-15T09:36:09;5.75;;;2.90;;
66483;SDS011;53299;52.160;7.556;2022-11-15T09:38:35;7.27;;;2.90;;
66483;SDS011;53299;52.160;7.556;2022-11-15T09:41:18;7.00;;;2.80;;
66483;SDS011;53299;52.160;7.556;2022-11-15T09:49:22;5.68;;;2.58;;
66483;SDS011;53299;52.160;7.556;2022-11-15T09:51:52;5.97;;;2.33;;
66483;SDS011;53299;52.160;7.556;2022-11-15T09:54:31;5.43;;;2.00;;
66483;SDS011;53299;52.160;7.556;2022-11-15T09:57:06;6.28;;;2.42;;
66483;SDS011;53299;52.160;7.556;2022-11-15T10:03:06;6.55;;;2.40;;
66483;SDS011;53299;52.160;7.556;2022-11-15T10:05:56;4.80;;;1.97;;
66483;SDS011;53299;52.160;7.556;2022-11-15T10:08:35;5.68;;;1.95;;
66483;SDS011;53299;52.160;7.556;2022-11-15T10:11:05;4.95;;;1.98;;
66483;SDS011;53299;52.160;7.556;2022-11-15T10:13:34;5.45;;;2.00;;
66483;SDS011;53299;52.160;7.556;2022-11-15T10:16:10;5.18;;;2.10;;
66483;SDS011;53299;52.160;7.556;2022-11-15T10:18:51;7.30;;;2.10;;
66483;SDS011;53299;52.160;7.556;2022-11-15T10:21:48;5.38;;;1.80;;
66483;SDS011;53299;52.160;7.556;2022-11-15T10:24:11;5.28;;;1.90;;
66483;SDS011;53299;52.160;7.556;2022-11-15T10:26:38;4.78;;;1.80;;
66483;SDS011;53299;52.160;7.556;2022-11-15T10:29:10;5.70;;;2.03;;
66483;SDS011;53299;52.160;7.556;2022-11-15T10:31:37;4.17;;;1.70;;
66483;SDS011;53299;52.160;7.556;2022-11-15T10:34:16;7.38;;;1.80;;
66483;SDS011;53299;52.160;7.556;2022-11-15T10:36:44;6.90;;;2.10;;
66483;SDS011;53299;52.160;7.556;2022-11-15T10:39:11;8.80;;;2.80;;
66483;SDS011;53299;52.160;7.556;2022-11-15T10:41:38;7.63;;;2.50;;
66483;SDS011;53299;52.160;7.556;2022-11-15T10:44:17;6.00;;;2.50;;
66483;SDS011;53299;52.160;7.556;2022-11-15T10:46:44;7.57;;;3.00;;
66483;SDS011;53299;52.160;7.556;2022-11-15T10:51:51;9.23;;;4.05;;
66483;SDS011;53299;52.160;7.556;2022-11-15T10:59:47;23.02;;;11.13;;
66483;SDS011;53299;52.160;7.556;2022-11-15T11:05:02;23.10;;;10.20;;
66483;SDS011;53299;52.160;7.556;2022-11-15T11:07:31;21.98;;;9.27;;
66483;SDS011;53299;52.160;7.556;2022-11-15T11:09:59;19.65;;;9.10;;
66483;SDS011;53299;52.160;7.556;2022-11-15T11:12:45;16.90;;;7.70;;
66483;SDS011;53299;52.160;7.556;2022-11-15T11:15:14;15.83;;;7.07;;
66483;SDS011;53299;52.160;7.556;2022-11-15T11:20:46;15.25;;;6.60;;
66483;SDS011;53299;52.160;7.556;2022-11-15T11:23:37;12.68;;;5.90;;
66483;SDS011;53299;52.160;7.556;2022-11-15T11:28:54;11.38;;;4.70;;
66483;SDS011;53299;52.160;7.556;2022-11-15T11:31:29;11.47;;;4.70;;
66483;SDS011;53299;52.160;7.556;2022-11-15T11:39:20;9.23;;;3.70;;
66483;SDS011;53299;52.160;7.556;2022-11-15T11:42:07;8.10;;;3.63;;
66483;SDS011;53299;52.160;7.556;2022-11-15T11:44:47;9.63;;;3.67;;
66483;SDS011;53299;52.160;7.556;2022-11-15T11:47:51;8.27;;;3.40;;
66483;SDS011;53299;52.160;7.556;2022-11-15T11:50:27;9.10;;;3.25;;
66483;SDS011;53299;52.160;7.556;2022-11-15T11:52:57;9.13;;;2.90;;
66483;SDS011;53299;52.160;7.556;2022-11-15T11:55:30;7.97;;;3.10;;
66483;SDS011;53299;52.160;7.556;2022-11-15T11:58:04;8.93;;;3.07;;
66483;SDS011;53299;52.160;7.556;2022-11-15T12:00:39;7.15;;;2.70;;
66483;SDS011;53299;52.160;7.556;2022-11-15T12:03:14;7.50;;;2.78;;
66483;SDS011;53299;52.160;7.556;2022-11-15T12:05:45;6.65;;;2.80;;
66483;SDS011;53299;52.160;7.556;2022-11-15T12:08:22;7.40;;;2.75;;
66483;SDS011;53299;52.160;7.556;2022-11-15T12:13:53;6.65;;;2.30;;
66483;SDS011;53299;52.160;7.556;2022-11-15T12:16:28;5.88;;;2.30;;
66483;SDS011;53299;52.160;7.556;2022-11-15T12:18:55;6.78;;;2.35;;
66483;SDS011;53299;52.160;7.556;2022-11-15T12:24:21;4.80;;;1.90;;
66483;SDS011;53299;52.160;7.556;2022-11-15T12:26:56;6.05;;;1.90;;
66483;SDS011;53299;52.160;7.556;2022-11-15T12:29:44;6.05;;;2.20;;
66483;SDS011;53299;52.160;7.556;2022-11-15T12:32:34;5.68;;;2.10;;
66483;SDS011;53299;52.160;7.556;2022-11-15T12:35:00;4.78;;;1.75;;
66483;SDS011;53299;52.160;7.556;2022-11-15T12:40:03;19.55;;;2.67;;
66483;SDS011;53299;52.160;7.556;2022-11-15T12:42:39;15.40;;;2.85;;
66483;SDS011;53299;52.160;7.556;2022-11-15T12:47:53;14.43;;;2.60;;
66483;SDS011;53299;52.160;7.556;2022-11-15T12:50:47;11.33;;;2.73;;
66483;SDS011;53299;52.160;7.556;2022-11-15T12:56:34;11.20;;;2.97;;
66483;SDS011;53299;52.160;7.556;2022-11-15T12:58:51;11.35;;;3.42;;
66483;SDS011;53299;52.160;7.556;2022-11-15T13:07:54;9.40;;;3.22;;
66483;SDS011;53299;52.160;7.556;2022-11-15T13:09:55;8.57;;;3.07;;
66483;SDS011;53299;52.160;7.556;2022-11-15T13:15:53;8.90;;;3.10;;
66483;SDS011;53299;52.160;7.556;2022-11-15T13:17:46;8.17;;;3.03;;
66483;SDS011;53299;52.160;7.556;2022-11-15T13:22:42;10.30;;;3.53;;
66483;SDS011;53299;52.160;7.556;2022-11-15T13:25:16;8.38;;;3.50;;
66483;SDS011;53299;52.160;7.556;2022-11-15T13:30:39;9.25;;;3.33;;
66483;SDS011;53299;52.160;7.556;2022-11-15T13:33:13;7.70;;;3.50;;
66483;SDS011;53299;52.160;7.556;2022-11-15T13:35:45;7.93;;;3.00;;
66483;SDS011;53299;52.160;7.556;2022-11-15T13:40:50;7.47;;;3.20;;
66483;SDS011;53299;52.160;7.556;2022-11-15T13:49:04;6.70;;;2.90;;
66483;SDS011;53299;52.160;7.556;2022-11-15T13:51:34;6.80;;;2.97;;
66483;SDS011;53299;52.160;7.556;2022-11-15T13:54:02;7.50;;;3.00;;
66483;SDS011;53299;52.160;7.556;2022-11-15T13:56:29;6.90;;;3.03;;
66483;SDS011;53299;52.160;7.556;2022-11-15T13:58:57;6.28;;;2.75;;
66483;SDS011;53299;52.160;7.556;2022-11-15T14:01:22;7.50;;;3.40;;
66483;SDS011;53299;52.160;7.556;2022-11-15T14:03:57;6.45;;;3.15;;
66483;SDS011;53299;52.160;7.556;2022-11-15T14:06:25;6.63;;;2.97;;
66483;SDS011;53299;52.160;7.556;2022-11-15T14:11:33;8.83;;;3.30;;
66483;SDS011;53299;52.160;7.556;2022-11-15T14:16:37;9.10;;;3.55;;
66483;SDS011;53299;52.160;7.556;2022-11-15T14:19:05;7.57;;;3.67;;
66483;SDS011;53299;52.160;7.556;2022-11-15T14:21:31;8.18;;;3.50;;
66483;SDS011;53299;52.160;7.556;2022-11-15T14:24:13;7.50;;;3.53;;
66483;SDS011;53299;52.160;7.556;2022-11-15T14:26:43;6.93;;;3.05;;
66483;SDS011;53299;52.160;7.556;2022-11-15T14:29:28;7.23;;;3.20;;
66483;SDS011;53299;52.160;7.556;2022-11-15T14:32:05;7.95;;;3.35;;
66483;SDS011;53299;52.160;7.556;2022-11-15T14:34:37;6.95;;;3.10;;
66483;SDS011;53299;52.160;7.556;2022-11-15T14:37:02;6.90;;;2.97;;
66483;SDS011;53299;52.160;7.556;2022-11-15T14:39:28;7.80;;;2.90;;
66483;SDS011;53299;52.160;7.556;2022-11-15T14:41:53;6.30;;;2.80;;
66483;SDS011;53299;52.160;7.556;2022-11-15T14:44:18;6.57;;;2.70;;
66483;SDS011;53299;52.160;7.556;2022-11-15T14:46:43;6.87;;;2.70;;
66483;SDS011;53299;52.160;7.556;2022-11-15T14:49:09;6.97;;;2.53;;
66483;SDS011;53299;52.160;7.556;2022-11-15T14:51:34;5.90;;;2.30;;
66483;SDS011;53299;52.160;7.556;2022-11-15T14:54:00;6.23;;;2.43;;
66483;SDS011;53299;52.160;7.556;2022-11-15T14:56:25;7.20;;;2.90;;
66483;SDS011;53299;52.160;7.556;2022-11-15T14:58:50;6.87;;;2.40;;
66483;SDS011;53299;52.160;7.556;2022-11-15T15:01:19;6.60;;;2.40;;
66483;SDS011;53299;52.160;7.556;2022-11-15T15:03:46;6.60;;;2.30;;
66483;SDS011;53299;52.160;7.556;2022-11-15T15:06:12;7.47;;;2.50;;
66483;SDS011;53299;52.160;7.556;2022-11-15T15:08:37;6.70;;;2.13;;
66483;SDS011;53299;52.160;7.556;2022-11-15T15:11:06;7.30;;;2.23;;
66483;SDS011;53299;52.160;7.556;2022-11-15T15:13:35;5.00;;;2.10;;
66483;SDS011;53299;52.160;7.556;2022-11-15T15:16:00;5.90;;;2.13;;
66483;SDS011;53299;52.160;7.556;2022-11-15T15:18:26;5.53;;;1.70;;
66483;SDS011;53299;52.160;7.556;2022-11-15T15:20:55;5.25;;;1.90;;
66483;SDS011;53299;52.160;7.556;2022-11-15T15:23:22;5.50;;;1.90;;
66483;SDS011;53299;52.160;7.556;2022-11-15T15:25:47;5.87;;;1.93;;
66483;SDS011;53299;52.160;7.556;2022-11-15T15:28:13;6.53;;;2.20;;
66483;SDS011;53299;52.160;7.556;2022-11-15T15:30:38;5.30;;;1.97;;
66483;SDS011;53299;52.160;7.556;2022-11-15T15:33:04;5.30;;;1.73;;
66483;SDS011;53299;52.160;7.556;2022-11-15T15:35:30;4.97;;;1.70;;
66483;SDS011;53299;52.160;7.556;2022-11-15T15:37:57;5.97;;;2.00;;
66483;SDS011;53299;52.160;7.556;2022-11-15T15:40:23;4.90;;;1.70;;
66483;SDS011;53299;52.160;7.556;2022-11-15T15:42:50;5.83;;;1.93;;
66483;SDS011;53299;52.160;7.556;2022-11-15T15:45:16;6.47;;;2.00;;
66483;SDS011;53299;52.160;7.556;2022-11-15T15:47:42;5.22;;;1.80;;
66483;SDS011;53299;52.160;7.556;2022-11-15T15:50:20;7.07;;;1.83;;
66483;SDS011;53299;52.160;7.556;2022-11-15T15:52:45;6.03;;;1.80;;
66483;SDS011;53299;52.160;7.556;2022-11-15T15:55:11;4.77;;;1.90;;
66483;SDS011;53299;52.160;7.556;2022-11-15T15:57:36;5.33;;;1.80;;
66483;SDS011;53299;52.160;7.556;2022-11-15T16:00:02;5.27;;;1.70;;
66483;SDS011;53299;52.160;7.556;2022-11-15T16:02:28;5.28;;;1.70;;
66483;SDS011;53299;52.160;7.556;2022-11-15T16:04:54;5.33;;;1.80;;
66483;SDS011;53299;52.160;7.556;2022-11-15T16:07:20;5.47;;;1.87;;
66483;SDS011;53299;52.160;7.556;2022-11-15T16:09:47;5.57;;;2.00;;
66483;SDS011;53299;52.160;7.556;2022-11-15T16:12:12;5.10;;;1.90;;
66483;SDS011;53299;52.160;7.556;2022-11-15T16:14:37;5.53;;;2.00;;
66483;SDS011;53299;52.160;7.556;2022-11-15T16:17:03;6.00;;;1.90;;
66483;SDS011;53299;52.160;7.556;2022-11-15T16:19:28;5.38;;;2.00;;
66483;SDS011;53299;52.160;7.556;2022-11-15T16:21:53;5.33;;;2.10;;
66483;SDS011;53299;52.160;7.556;2022-11-15T16:24:19;5.67;;;2.00;;
66483;SDS011;53299;52.160;7.556;2022-11-15T16:26:45;4.80;;;2.00;;
66483;SDS011;53299;52.160;7.556;2022-11-15T16:29:11;5.27;;;2.00;;
66483;SDS011;53299;52.160;7.556;2022-11-15T16:31:37;8.00;;;2.00;;
66483;SDS011;53299;52.160;7.556;2022-11-15T16:34:02;6.50;;;2.30;;